Time;durP1;ratioP1;P1;durP2;ratioP2;P2;SDS_P1;SDS_P2;PMS_P1;PMS_P2;Temp;Humidity;BMP_temperature;BMP_pressure;BME280_temperature;BME280_humidity;BME280_pressure;Samples;Min_cycle;Max_cycle;Signal;HPM_P1;HPM_P2
2021/07/24 00:01:54;;;;;;;18.45;9.75;;;20.80;99.90;;;;;;5048064;28;20012;-89
2021/07/24 00:04:19;;;;;;;12.52;9.23;;;20.70;99.90;;;;;;5043118;28;20021;-89
2021/07/24 00:06:45;;;;;;;16.10;8.85;;;20.70;99.90;;;;;;5038081;28;20083;-88
2021/07/24 00:09:12;;;;;;;15.07;10.07;;;20.70;99.90;;;;;;5037516;28;20060;-88
2021/07/24 00:11:38;;;;;;;13.45;8.48;;;20.60;99.90;;;;;;5037149;28;20036;-88
2021/07/24 00:14:03;;;;;;;14.02;9.63;;;20.40;99.90;;;;;;5054628;28;20025;-88
2021/07/24 00:16:29;;;;;;;15.60;9.35;;;20.50;99.90;;;;;;5037002;28;20124;-88
2021/07/24 00:18:55;;;;;;;17.98;9.40;;;20.50;99.90;;;;;;5036946;28;20036;-88
2021/07/24 00:21:21;;;;;;;14.43;9.27;;;20.20;99.90;;;;;;5036977;28;20110;-89
2021/07/24 00:23:46;;;;;;;12.27;9.07;;;20.20;99.90;;;;;;5036024;28;20021;-89
2021/07/24 00:26:13;;;;;;;12.90;9.38;;;20.50;99.90;;;;;;5036686;28;20021;-88
2021/07/24 00:28:40;;;;;;;15.10;9.65;;;20.40;99.90;;;;;;5037897;28;20477;-88
2021/07/24 00:31:06;;;;;;;15.23;9.27;;;20.50;99.90;;;;;;5057543;28;20024;-89
2021/07/24 00:33:32;;;;;;;14.73;9.27;;;20.60;99.90;;;;;;5058542;28;20109;-88
2021/07/24 00:35:57;;;;;;;18.08;10.48;;;20.70;99.90;;;;;;5058960;28;20025;-88
2021/07/24 00:38:25;;;;;;;13.90;9.40;;;20.50;99.90;;;;;;5040660;28;20137;-88
2021/07/24 00:41:19;;;;;;;13.00;8.90;;;20.50;99.90;;;;;;5039649;28;20061;-89
2021/07/24 00:43:46;;;;;;;10.98;8.50;;;20.50;99.90;;;;;;5022505;28;20045;-89
2021/07/24 00:46:14;;;;;;;11.35;8.55;;;20.70;99.90;;;;;;5040472;28;20021;-88
2021/07/24 00:48:42;;;;;;;16.38;9.57;;;20.60;99.90;;;;;;5057642;28;20056;-89
2021/07/24 00:51:08;;;;;;;11.45;8.85;;;20.60;99.90;;;;;;5040226;28;20074;-88
2021/07/24 00:53:36;;;;;;;14.25;9.98;;;20.60;99.90;;;;;;5040371;28;20107;-88
2021/07/24 00:56:04;;;;;;;13.40;9.80;;;20.60;99.90;;;;;;5058060;28;20511;-89
2021/07/24 00:58:32;;;;;;;15.68;8.48;;;20.30;99.90;;;;;;5039848;28;20020;-88
2021/07/24 01:00:59;;;;;;;12.38;8.57;;;20.10;99.90;;;;;;5039913;28;20016;-88
2021/07/24 01:03:24;;;;;;;16.25;9.43;;;20.00;99.90;;;;;;5040211;28;20021;-89
2021/07/24 01:05:53;;;;;;;13.93;9.20;;;19.80;99.90;;;;;;5039472;28;20476;-89
2021/07/24 01:08:19;;;;;;;13.10;9.25;;;19.90;99.90;;;;;;5039883;28;20411;-89
2021/07/24 01:10:46;;;;;;;13.20;9.10;;;20.30;99.90;;;;;;5057535;28;20029;-89
2021/07/24 01:13:16;;;;;;;15.05;9.07;;;20.30;99.90;;;;;;5057501;28;20021;-90
2021/07/24 01:15:44;;;;;;;15.00;9.25;;;20.40;99.90;;;;;;5039682;28;20132;-89
2021/07/24 01:18:09;;;;;;;17.38;9.70;;;20.50;99.90;;;;;;5058029;28;20025;-88
2021/07/24 01:20:36;;;;;;;14.00;9.15;;;20.40;99.90;;;;;;5039992;28;20025;-89
2021/07/24 01:23:02;;;;;;;16.45;8.98;;;20.20;99.90;;;;;;5039792;28;20112;-88
2021/07/24 01:25:27;;;;;;;17.73;9.93;;;20.00;99.90;;;;;;5038972;28;20059;-89
2021/07/24 01:27:53;;;;;;;11.05;8.98;;;20.00;99.90;;;;;;5039909;28;20022;-88
2021/07/24 01:30:19;;;;;;;14.57;8.93;;;20.00;99.90;;;;;;5039769;28;20029;-89
2021/07/24 01:32:44;;;;;;;12.63;9.30;;;20.10;99.90;;;;;;5039918;28;20025;-88
2021/07/24 01:35:11;;;;;;;11.52;9.07;;;20.10;99.90;;;;;;5039392;28;20053;-88
2021/07/24 01:37:36;;;;;;;12.38;8.80;;;20.00;99.90;;;;;;5052094;28;20458;-88
2021/07/24 01:40:03;;;;;;;14.02;9.20;;;20.20;99.90;;;;;;5018444;28;20025;-88
2021/07/24 01:42:28;;;;;;;11.02;8.90;;;20.40;99.90;;;;;;5018915;28;20057;-88
2021/07/24 01:44:54;;;;;;;11.73;9.18;;;20.30;99.90;;;;;;5019646;28;20500;-89
2021/07/24 01:47:20;;;;;;;15.10;9.63;;;20.40;99.90;;;;;;5019364;28;20026;-89
2021/07/24 01:52:51;;;;;;;13.38;9.35;;;20.10;99.90;;;;;;5037709;28;20087;-88
2021/07/24 01:55:23;;;;;;;14.07;9.30;;;20.10;99.90;;;;;;5019510;28;20488;-89
2021/07/24 01:57:51;;;;;;;13.55;10.13;;;20.30;99.90;;;;;;5019209;28;20029;-89
2021/07/24 02:00:18;;;;;;;17.40;10.38;;;20.40;99.90;;;;;;5019373;28;20037;-89
2021/07/24 02:02:46;;;;;;;10.93;8.77;;;20.20;99.90;;;;;;5019296;28;20033;-88
2021/07/24 02:05:32;;;;;;;12.38;9.98;;;20.30;99.90;;;;;;5019013;28;20052;-88
2021/07/24 02:08:01;;;;;;;13.55;9.13;;;20.20;99.90;;;;;;5020315;28;20025;-89
2021/07/24 02:10:27;;;;;;;16.33;9.25;;;20.00;99.90;;;;;;5029011;28;20049;-88
2021/07/24 02:12:53;;;;;;;13.90;9.38;;;20.00;99.90;;;;;;5026773;28;20029;-88
2021/07/24 02:15:19;;;;;;;18.77;9.70;;;19.90;99.90;;;;;;5038118;28;20021;-88
2021/07/24 02:17:45;;;;;;;14.23;9.50;;;19.90;99.90;;;;;;5019987;28;20025;-89
2021/07/24 02:20:12;;;;;;;14.23;9.20;;;20.00;99.90;;;;;;5017241;28;20704;-88
2021/07/24 02:22:38;;;;;;;17.30;9.50;;;20.20;99.90;;;;;;5017256;28;20388;-89
2021/07/24 02:25:04;;;;;;;11.25;8.77;;;20.40;99.90;;;;;;5017344;28;20021;-89
2021/07/24 02:27:30;;;;;;;12.85;9.27;;;20.00;99.90;;;;;;5034926;28;20087;-89
2021/07/24 02:29:56;;;;;;;12.60;9.30;;;19.90;99.90;;;;;;5017428;28;20033;-88
2021/07/24 02:32:21;;;;;;;13.45;9.40;;;19.70;99.90;;;;;;5017208;28;20025;-88
2021/07/24 02:34:47;;;;;;;12.15;9.43;;;19.70;99.90;;;;;;5017003;28;20439;-88
2021/07/24 02:37:13;;;;;;;11.90;8.75;;;19.80;99.90;;;;;;5016659;28;20436;-90
2021/07/24 02:39:38;;;;;;;13.55;9.68;;;19.70;99.90;;;;;;5016953;28;20120;-88
2021/07/24 02:42:04;;;;;;;15.20;10.40;;;19.70;99.90;;;;;;5016874;28;20113;-88
2021/07/24 02:44:30;;;;;;;17.23;9.63;;;19.50;99.90;;;;;;5016802;28;20028;-88
2021/07/24 02:46:56;;;;;;;13.85;8.95;;;19.70;99.90;;;;;;5016795;28;20036;-88
2021/07/24 02:49:21;;;;;;;11.85;9.27;;;19.90;99.90;;;;;;5016892;28;20030;-88
2021/07/24 02:51:47;;;;;;;14.80;8.95;;;19.90;99.90;;;;;;5016534;28;20048;-88
2021/07/24 02:54:13;;;;;;;12.52;9.20;;;19.70;99.90;;;;;;5016668;28;20048;-88
2021/07/24 02:56:38;;;;;;;15.10;10.15;;;19.80;99.90;;;;;;5016892;28;20423;-88
2021/07/24 02:59:04;;;;;;;17.20;9.57;;;19.60;99.90;;;;;;5016548;28;20504;-88
2021/07/24 03:01:30;;;;;;;14.15;9.68;;;19.50;99.90;;;;;;5016591;28;20041;-89
2021/07/24 03:03:55;;;;;;;12.20;9.48;;;19.50;99.90;;;;;;5034265;28;20026;-88
2021/07/24 03:06:21;;;;;;;15.80;9.45;;;19.40;99.90;;;;;;5016466;28;20474;-88
2021/07/24 03:08:47;;;;;;;16.63;8.93;;;19.30;99.90;;;;;;5034029;28;20029;-88
2021/07/24 03:11:12;;;;;;;14.70;9.88;;;19.40;99.90;;;;;;5016350;28;20032;-88
2021/07/24 03:13:38;;;;;;;20.33;10.32;;;19.50;99.90;;;;;;5016404;28;20031;-89
2021/07/24 03:16:04;;;;;;;15.38;9.90;;;19.40;99.90;;;;;;5016418;28;20083;-89
2021/07/24 03:18:29;;;;;;;13.93;9.30;;;19.20;99.90;;;;;;5017368;28;20087;-89
2021/07/24 03:20:55;;;;;;;18.90;9.85;;;19.30;99.90;;;;;;5016274;28;20034;-89
2021/07/24 03:23:21;;;;;;;12.25;9.50;;;19.30;99.90;;;;;;5016215;28;20033;-89
2021/07/24 03:25:46;;;;;;;16.55;10.27;;;19.50;99.90;;;;;;5016116;28;20052;-89
2021/07/24 03:28:12;;;;;;;15.00;9.48;;;19.60;99.90;;;;;;5017228;28;20529;-89
2021/07/24 03:30:38;;;;;;;15.98;9.70;;;19.70;99.90;;;;;;5016405;28;20048;-89
2021/07/24 03:33:04;;;;;;;11.77;8.90;;;19.70;99.90;;;;;;5033748;28;20096;-89
2021/07/24 03:35:30;;;;;;;13.13;8.93;;;19.80;99.90;;;;;;5016093;28;20064;-89
2021/07/24 03:37:55;;;;;;;15.00;9.15;;;20.00;99.90;;;;;;5023056;28;20504;-89
2021/07/24 03:40:21;;;;;;;14.63;9.45;;;19.90;99.90;;;;;;5053469;28;20392;-89
2021/07/24 03:42:47;;;;;;;15.77;9.82;;;20.00;99.90;;;;;;5035587;28;20499;-88
2021/07/24 03:45:12;;;;;;;13.63;9.50;;;19.90;99.90;;;;;;5035606;28;20025;-90
2021/07/24 03:47:38;;;;;;;14.65;9.80;;;19.80;99.90;;;;;;5053510;28;20488;-89
2021/07/24 03:50:04;;;;;;;14.07;9.30;;;19.60;99.90;;;;;;5035592;28;20075;-90
2021/07/24 03:52:30;;;;;;;16.38;9.80;;;19.80;99.90;;;;;;5035771;28;20392;-89
2021/07/24 03:54:58;;;;;;;16.17;10.02;;;19.90;99.90;;;;;;5053368;28;20025;-89
2021/07/24 03:57:23;;;;;;;12.20;9.73;;;19.90;99.90;;;;;;5035392;28;20396;-89
2021/07/24 03:59:49;;;;;;;13.23;9.77;;;20.00;99.90;;;;;;5035347;28;20025;-89
2021/07/24 04:02:19;;;;;;;16.90;10.25;;;20.10;99.90;;;;;;5035363;28;20028;-89
2021/07/24 04:04:50;;;;;;;15.55;10.30;;;20.20;99.90;;;;;;5035130;28;20067;-89
2021/07/24 04:07:16;;;;;;;14.65;10.48;;;20.10;99.90;;;;;;5035428;28;20028;-89
2021/07/24 04:09:42;;;;;;;11.80;9.85;;;20.20;99.90;;;;;;5035145;28;20025;-88
2021/07/24 04:12:10;;;;;;;15.38;9.80;;;20.10;99.90;;;;;;5053151;28;20025;-89
2021/07/24 04:14:36;;;;;;;13.90;10.10;;;20.00;99.90;;;;;;5035220;28;20029;-89
2021/07/24 04:17:02;;;;;;;19.92;9.95;;;19.80;99.90;;;;;;5035324;28;20120;-89
2021/07/24 04:19:29;;;;;;;15.40;11.13;;;19.70;99.90;;;;;;5042554;28;20037;-89
2021/07/24 04:21:55;;;;;;;14.93;9.85;;;19.70;99.90;;;;;;5068578;28;20500;-88
2021/07/24 04:24:20;;;;;;;14.13;10.10;;;19.80;99.90;;;;;;5041408;28;20082;-90
2021/07/24 04:26:46;;;;;;;12.95;9.70;;;19.90;99.90;;;;;;5036436;28;20056;-89
2021/07/24 04:29:11;;;;;;;13.55;10.00;;;19.90;99.90;;;;;;5035546;28;20017;-89
2021/07/24 04:31:38;;;;;;;16.80;9.45;;;20.00;99.90;;;;;;5053067;28;20039;-89
2021/07/24 04:34:04;;;;;;;14.48;10.27;;;19.90;99.90;;;;;;5035348;28;20035;-89
2021/07/24 04:36:29;;;;;;;17.33;10.13;;;20.00;99.90;;;;;;5052885;28;20020;-89
2021/07/24 04:38:55;;;;;;;13.10;9.15;;;20.00;99.90;;;;;;5034959;28;20053;-89
2021/07/24 04:41:21;;;;;;;14.75;9.65;;;20.00;99.90;;;;;;5035011;28;20520;-90
2021/07/24 04:43:47;;;;;;;14.48;9.70;;;20.20;99.90;;;;;;5035005;28;20021;-89
2021/07/24 04:46:13;;;;;;;14.15;9.35;;;20.20;99.90;;;;;;5035005;28;20049;-89
2021/07/24 04:48:39;;;;;;;17.48;10.15;;;20.20;99.90;;;;;;5035044;28;20440;-89
2021/07/24 04:51:04;;;;;;;12.68;9.95;;;20.10;99.90;;;;;;5035040;28;20115;-89
2021/07/24 04:53:32;;;;;;;16.25;9.60;;;19.80;99.90;;;;;;5034848;28;20025;-90
2021/07/24 04:56:00;;;;;;;14.73;10.38;;;19.50;99.90;;;;;;5035006;28;20068;-89
2021/07/24 04:58:26;;;;;;;14.45;9.45;;;19.70;99.90;;;;;;5035042;28;20497;-89
2021/07/24 05:00:52;;;;;;;15.07;9.98;;;19.90;99.90;;;;;;5034880;28;20119;-90
2021/07/24 05:03:18;;;;;;;11.05;9.45;;;20.00;99.90;;;;;;5034923;28;20373;-89
2021/07/24 05:05:44;;;;;;;18.55;10.18;;;20.10;99.90;;;;;;5035085;28;20025;-89
2021/07/24 05:08:11;;;;;;;11.25;8.85;;;20.20;99.90;;;;;;5034835;28;20036;-89
2021/07/24 05:10:37;;;;;;;15.13;9.07;;;20.10;99.90;;;;;;5034851;28;20025;-88
2021/07/24 05:13:03;;;;;;;11.77;9.32;;;20.20;99.90;;;;;;5034743;28;20082;-89
2021/07/24 05:15:29;;;;;;;14.15;9.70;;;20.30;99.90;;;;;;5053675;28;20096;-89
2021/07/24 05:17:55;;;;;;;15.25;9.73;;;20.10;99.90;;;;;;5038333;28;20032;-89
2021/07/24 05:20:21;;;;;;;15.27;10.27;;;20.10;99.90;;;;;;5055972;28;20036;-88
2021/07/24 05:22:46;;;;;;;14.05;9.00;;;19.90;99.90;;;;;;5038184;28;20044;-89
2021/07/24 05:25:12;;;;;;;14.68;9.15;;;20.20;99.90;;;;;;5037955;28;20017;-89
2021/07/24 05:27:38;;;;;;;12.23;9.75;;;20.40;99.90;;;;;;5038122;28;20017;-88
2021/07/24 05:30:05;;;;;;;10.95;9.30;;;20.60;99.90;;;;;;5037954;28;20116;-89
2021/07/24 05:32:32;;;;;;;13.25;9.90;;;20.70;99.90;;;;;;5037953;28;20083;-88
2021/07/24 05:34:57;;;;;;;14.68;9.35;;;20.70;99.90;;;;;;5038055;28;20029;-89
2021/07/24 05:37:23;;;;;;;14.95;9.73;;;20.70;99.90;;;;;;5052581;28;20064;-89
2021/07/24 05:39:49;;;;;;;14.32;9.65;;;20.50;99.90;;;;;;5017885;28;20033;-89
2021/07/24 05:42:14;;;;;;;12.82;9.55;;;20.60;99.90;;;;;;5017885;28;20473;-89
2021/07/24 05:44:40;;;;;;;13.65;8.98;;;20.50;99.90;;;;;;5017929;28;20108;-89
2021/07/24 05:47:06;;;;;;;12.20;9.48;;;20.50;99.90;;;;;;5018192;28;20025;-89
2021/07/24 05:49:31;;;;;;;12.60;9.43;;;20.50;99.90;;;;;;5035672;28;20209;-90
2021/07/24 05:51:57;;;;;;;14.25;9.20;;;20.70;99.90;;;;;;5017809;28;20025;-89
2021/07/24 05:54:23;;;;;;;13.18;10.07;;;20.80;99.90;;;;;;5017898;28;20049;-90
2021/07/24 05:56:52;;;;;;;19.55;10.00;;;20.70;99.90;;;;;;5018115;28;20033;-89
2021/07/24 05:59:18;;;;;;;13.38;10.10;;;20.70;99.90;;;;;;5018055;28;20030;-89
2021/07/24 06:01:43;;;;;;;14.82;9.25;;;20.80;99.90;;;;;;5017628;28;20117;-89
2021/07/24 06:04:09;;;;;;;13.55;10.00;;;20.80;99.90;;;;;;5017651;28;20079;-88
2021/07/24 06:06:35;;;;;;;13.02;10.27;;;20.70;99.90;;;;;;5017508;28;20022;-89
2021/07/24 06:09:01;;;;;;;16.73;9.43;;;20.70;99.90;;;;;;5017529;28;20397;-89
2021/07/24 06:11:27;;;;;;;14.20;9.90;;;20.80;99.90;;;;;;5017820;28;20485;-89
2021/07/24 06:13:53;;;;;;;12.02;9.35;;;20.80;99.90;;;;;;5018488;28;20030;-88
2021/07/24 06:16:18;;;;;;;11.98;9.63;;;20.80;99.90;;;;;;5035701;28;20026;-89
2021/07/24 06:18:44;;;;;;;13.85;9.52;;;20.90;99.90;;;;;;5017368;28;20079;-89
2021/07/24 06:21:17;;;;;;;16.55;9.05;;;21.00;99.90;;;;;;5017153;28;20022;-89
2021/07/24 06:23:44;;;;;;;15.65;9.90;;;21.00;99.90;;;;;;5017260;28;20025;-89
2021/07/24 06:26:10;;;;;;;15.70;9.50;;;21.00;99.90;;;;;;5016977;28;20030;-89
2021/07/24 06:28:36;;;;;;;11.95;9.27;;;21.00;99.90;;;;;;5021501;28;20028;-89
2021/07/24 06:31:03;;;;;;;16.00;9.98;;;21.00;99.90;;;;;;5032471;28;20028;-88
2021/07/24 06:33:29;;;;;;;14.30;10.77;;;20.90;99.90;;;;;;5027086;28;20035;-90
2021/07/24 06:35:55;;;;;;;14.95;9.77;;;20.70;99.90;;;;;;5036535;28;20029;-89
2021/07/24 06:38:20;;;;;;;14.55;10.20;;;20.70;99.90;;;;;;5028416;28;20048;-89
2021/07/24 06:40:46;;;;;;;12.25;9.40;;;20.60;99.90;;;;;;5036853;28;20035;-89
2021/07/24 06:43:12;;;;;;;11.40;9.07;;;20.80;99.90;;;;;;5036819;28;20021;-89
2021/07/24 06:45:37;;;;;;;13.52;10.18;;;21.00;99.90;;;;;;5037721;28;20029;-89
2021/07/24 06:48:03;;;;;;;12.27;9.35;;;21.10;99.90;;;;;;5054566;28;20025;-89
2021/07/24 06:50:29;;;;;;;11.93;9.05;;;21.10;99.90;;;;;;5054387;28;20095;-89
2021/07/24 06:52:59;;;;;;;12.73;9.50;;;21.20;99.90;;;;;;5036475;28;20484;-89
2021/07/24 06:55:25;;;;;;;14.90;9.30;;;21.30;99.90;;;;;;5054283;28;20032;-89
2021/07/24 06:57:51;;;;;;;11.23;9.48;;;21.50;99.90;;;;;;5036594;28;20021;-89
2021/07/24 07:00:17;;;;;;;12.63;9.40;;;21.40;99.90;;;;;;5036153;28;20036;-89
2021/07/24 07:02:42;;;;;;;13.13;9.45;;;21.20;99.90;;;;;;5054247;28;20024;-88
2021/07/24 07:05:09;;;;;;;13.77;8.80;;;21.40;99.90;;;;;;5036291;28;20062;-89
2021/07/24 07:07:35;;;;;;;15.75;9.52;;;21.60;99.90;;;;;;5036605;28;20021;-89
2021/07/24 07:10:01;;;;;;;15.60;10.23;;;21.60;99.90;;;;;;5036485;28;20032;-89
2021/07/24 07:12:26;;;;;;;11.85;9.60;;;21.60;99.90;;;;;;5036120;28;20035;-89
2021/07/24 07:14:52;;;;;;;14.50;9.20;;;21.50;99.90;;;;;;5036181;28;20111;-89
2021/07/24 07:17:18;;;;;;;19.33;10.10;;;21.60;99.90;;;;;;5035957;28;20036;-89
2021/07/24 07:19:43;;;;;;;11.25;9.63;;;21.60;99.90;;;;;;5036213;28;20112;-89
2021/07/24 07:22:09;;;;;;;11.95;9.82;;;21.80;99.90;;;;;;5036090;28;20420;-89
2021/07/24 07:24:36;;;;;;;14.25;9.60;;;21.80;99.90;;;;;;5036050;28;20117;-89
2021/07/24 07:27:01;;;;;;;17.70;9.55;;;22.00;99.90;;;;;;5036008;28;20051;-88
2021/07/24 07:29:27;;;;;;;14.00;10.30;;;21.80;99.90;;;;;;5036168;28;20021;-88
2021/07/24 07:31:53;;;;;;;15.27;10.15;;;21.80;99.90;;;;;;5036130;28;20056;-89
2021/07/24 07:34:19;;;;;;;23.02;11.00;;;22.00;99.90;;;;;;5035718;28;20036;-88
2021/07/24 07:36:44;;;;;;;12.20;9.55;;;21.80;99.90;;;;;;5035827;28;20029;-91
2021/07/24 07:39:10;;;;;;;18.05;10.77;;;21.60;99.90;;;;;;5034787;28;20041;-89
2021/07/24 07:41:36;;;;;;;15.45;10.27;;;21.60;99.90;;;;;;5035445;28;20029;-89
2021/07/24 07:44:02;;;;;;;14.85;10.65;;;21.50;99.90;;;;;;5035595;28;20029;-88
2021/07/24 07:46:27;;;;;;;22.27;11.73;;;21.30;99.90;;;;;;5035540;28;20025;-89
2021/07/24 07:48:53;;;;;;;16.35;10.65;;;21.10;99.90;;;;;;5053694;28;20032;-88
2021/07/24 07:51:19;;;;;;;16.85;11.73;;;21.10;99.90;;;;;;5035452;28;20029;-89
2021/07/24 07:53:44;;;;;;;21.00;11.65;;;21.20;99.90;;;;;;5053240;28;20028;-90
2021/07/24 07:56:10;;;;;;;21.25;11.23;;;21.20;99.90;;;;;;5053569;28;20029;-88
2021/07/24 07:58:37;;;;;;;21.65;12.00;;;21.20;99.90;;;;;;5035275;28;20175;-88
2021/07/24 08:01:09;;;;;;;19.67;12.07;;;21.40;99.90;;;;;;5035273;28;20024;-88
2021/07/24 08:03:35;;;;;;;21.55;10.88;;;21.40;99.90;;;;;;5053515;28;20021;-87
2021/07/24 08:06:01;;;;;;;21.00;11.63;;;21.30;99.90;;;;;;5053081;28;20028;-88
2021/07/24 08:08:27;;;;;;;16.05;11.05;;;21.30;99.90;;;;;;5035211;28;20522;-88
2021/07/24 08:10:52;;;;;;;18.38;11.93;;;21.30;99.90;;;;;;5035210;28;20029;-88
2021/07/24 08:13:18;;;;;;;15.63;11.32;;;21.40;99.90;;;;;;5035445;28;20029;-88
2021/07/24 08:15:46;;;;;;;17.08;11.55;;;21.40;99.90;;;;;;5035042;28;20108;-88
2021/07/24 08:18:12;;;;;;;17.33;11.02;;;21.50;99.90;;;;;;5035718;28;20040;-88
2021/07/24 08:20:41;;;;;;;20.23;11.57;;;21.60;99.90;;;;;;5036599;28;20032;-88
2021/07/24 08:23:08;;;;;;;15.75;10.50;;;21.70;99.90;;;;;;5036734;28;20029;-87
2021/07/24 08:25:34;;;;;;;19.90;10.95;;;21.90;99.90;;;;;;5036213;28;20043;-87
2021/07/24 08:28:01;;;;;;;15.38;11.20;;;22.20;99.90;;;;;;5036121;28;20119;-87
2021/07/24 08:30:27;;;;;;;20.40;11.10;;;22.30;99.90;;;;;;5054347;28;20108;-88
2021/07/24 08:32:53;;;;;;;16.90;10.52;;;22.40;99.90;;;;;;5036905;28;20021;-88
2021/07/24 08:35:18;;;;;;;16.38;9.95;;;22.60;99.90;;;;;;5035910;28;20502;-88
2021/07/24 08:37:44;;;;;;;17.45;10.25;;;22.80;99.90;;;;;;5041968;28;20064;-87
2021/07/24 08:40:12;;;;;;;19.52;10.63;;;22.90;99.90;;;;;;5045838;28;20063;-88
2021/07/24 08:42:39;;;;;;;12.95;9.73;;;23.10;99.90;;;;;;5039186;28;20078;-88
2021/07/24 08:45:06;;;;;;;20.08;10.40;;;23.30;99.90;;;;;;5036591;28;20044;-88
2021/07/24 08:47:32;;;;;;;18.95;10.60;;;23.40;99.90;;;;;;5037060;28;20051;-88
2021/07/24 08:50:04;;;;;;;15.45;9.95;;;23.50;99.90;;;;;;5038372;28;20506;-88
2021/07/24 08:52:32;;;;;;;18.00;10.57;;;23.50;99.90;;;;;;5040305;28;20502;-87
2021/07/24 08:54:59;;;;;;;16.30;10.43;;;23.40;99.90;;;;;;5040441;28;20033;-88
2021/07/24 08:57:35;;;;;;;23.40;10.32;;;23.70;99.90;;;;;;5040385;28;20029;-88
2021/07/24 09:00:21;;;;;;;12.90;8.82;;;23.90;99.90;;;;;;5040040;28;20115;-88
2021/07/24 09:02:47;;;;;;;10.93;8.80;;;24.00;99.90;;;;;;5040309;28;20024;-89
2021/07/24 09:05:16;;;;;;;15.43;8.82;;;23.90;99.90;;;;;;5040233;28;20021;-88
2021/07/24 09:07:49;;;;;;;12.02;8.30;;;23.90;99.90;;;;;;5040052;28;20071;-87
2021/07/24 09:10:16;;;;;;;13.27;8.52;;;23.90;99.90;;;;;;5040414;28;20036;-88
2021/07/24 09:12:44;;;;;;;15.50;9.00;;;23.90;99.90;;;;;;5039308;28;20025;-89
2021/07/24 09:15:12;;;;;;;14.15;8.20;;;24.10;99.90;;;;;;5057628;28;20552;-88
2021/07/24 09:17:38;;;;;;;17.50;8.63;;;24.30;99.90;;;;;;5040121;28;20116;-88
2021/07/24 09:20:06;;;;;;;14.57;8.90;;;24.60;99.90;;;;;;5039787;28;20052;-88
2021/07/24 09:22:36;;;;;;;12.20;8.50;;;24.70;99.90;;;;;;5039797;28;20024;-88
2021/07/24 09:25:09;;;;;;;17.25;8.45;;;24.50;99.90;;;;;;5039695;28;20496;-88
2021/07/24 09:27:38;;;;;;;17.48;8.15;;;24.50;99.90;;;;;;5039763;28;20021;-87
2021/07/24 09:30:05;;;;;;;15.20;8.10;;;24.80;99.90;;;;;;5057519;28;20074;-86
2021/07/24 09:32:32;;;;;;;12.77;7.20;;;24.80;99.90;;;;;;5039206;28;20029;-88
2021/07/24 09:34:58;;;;;;;12.23;8.57;;;25.20;99.90;;;;;;5038967;28;20377;-87
2021/07/24 09:37:28;;;;;;;14.40;7.63;;;25.70;99.90;;;;;;5036741;28;20056;-87
2021/07/24 09:40:17;;;;;;;11.35;7.40;;;26.10;99.90;;;;;;5019582;28;20485;-86
2021/07/24 09:42:43;;;;;;;11.10;7.13;;;26.20;99.90;;;;;;5006507;28;20065;-87
2021/07/24 09:45:09;;;;;;;12.15;7.47;;;25.90;99.90;;;;;;5019348;28;20036;-88
2021/07/24 09:47:36;;;;;;;10.43;7.30;;;25.70;99.90;;;;;;5019593;28;20489;-87
2021/07/24 09:50:13;;;;;;;12.43;7.03;;;25.80;99.90;;;;;;5019267;28;20025;-87
2021/07/24 09:52:45;;;;;;;14.48;7.28;;;26.00;99.90;;;;;;5019372;28;20021;-87
2021/07/24 09:55:25;;;;;;;12.20;6.88;;;26.40;99.90;;;;;;5019863;28;20025;-87
2021/07/24 09:57:56;;;;;;;11.35;6.13;;;26.70;99.90;;;;;;5019265;28;20029;-87
2021/07/24 10:00:24;;;;;;;8.50;5.43;;;26.90;99.50;;;;;;5018807;28;20040;-88
2021/07/24 10:03:01;;;;;;;10.70;5.88;;;27.10;99.00;;;;;;5018440;28;20022;-87
2021/07/24 10:05:40;;;;;;;11.20;5.93;;;27.50;98.10;;;;;;5019245;28;20418;-87
2021/07/24 10:08:10;;;;;;;8.93;5.90;;;27.50;97.80;;;;;;5019168;28;20025;-88
2021/07/24 10:10:38;;;;;;;12.15;5.82;;;27.30;97.70;;;;;;5018785;28;20384;-87
2021/07/24 10:13:07;;;;;;;9.15;5.78;;;27.00;97.90;;;;;;5036724;28;20469;-89
2021/07/24 10:15:44;;;;;;;9.52;5.80;;;26.90;98.20;;;;;;5019047;28;20075;-87
2021/07/24 10:18:13;;;;;;;8.25;5.78;;;26.80;98.50;;;;;;5019231;28;20025;-88
2021/07/24 10:20:46;;;;;;;11.95;5.88;;;26.90;99.00;;;;;;5019091;28;20052;-88
2021/07/24 10:23:12;;;;;;;12.48;5.85;;;26.90;99.30;;;;;;5019044;28;20025;-88
2021/07/24 10:25:46;;;;;;;11.50;6.22;;;27.20;98.10;;;;;;5036607;28;20025;-86
2021/07/24 10:28:14;;;;;;;10.73;6.10;;;27.30;97.90;;;;;;5018700;28;20032;-88
2021/07/24 10:30:41;;;;;;;8.77;5.70;;;27.20;97.40;;;;;;5019075;28;20374;-86
2021/07/24 10:33:08;;;;;;;9.90;5.60;;;27.30;97.60;;;;;;5018559;28;20049;-87
2021/07/24 10:35:38;;;;;;;13.68;5.93;;;27.30;97.70;;;;;;5017996;28;20041;-87
2021/07/24 10:38:28;;;;;;;8.88;5.65;;;27.10;97.00;;;;;;5025991;28;20068;-87
2021/07/24 10:40:54;;;;;;;10.85;6.60;;;27.10;96.50;;;;;;5037479;28;20025;-86
2021/07/24 10:44:00;;;;;;;9.43;5.22;;;27.30;97.30;;;;;;5055151;28;20071;-86
2021/07/24 10:46:44;;;;;;;9.27;5.97;;;27.90;96.10;;;;;;5038204;28;20027;-87
2021/07/24 10:49:21;;;;;;;10.20;5.20;;;28.50;95.50;;;;;;5041031;28;20028;-87
2021/07/24 10:52:00;;;;;;;9.27;5.35;;;28.60;94.90;;;;;;5041778;28;20035;-87
2021/07/24 10:54:27;;;;;;;8.98;5.13;;;28.80;94.70;;;;;;5039351;28;20392;-88
2021/07/24 10:56:53;;;;;;;10.43;4.57;;;28.30;95.20;;;;;;5039134;28;20009;-88
2021/07/24 10:59:19;;;;;;;10.50;5.47;;;28.30;94.80;;;;;;5038336;28;20036;-87
2021/07/24 11:01:48;;;;;;;12.27;5.25;;;27.90;94.50;;;;;;5037422;28;20036;-84
2021/07/24 11:04:36;;;;;;;11.10;5.10;;;27.50;95.60;;;;;;5037464;28;20021;-87
2021/07/24 11:09:41;;;;;;;8.27;5.47;;;27.10;96.50;;;;;;5055338;28;20476;-86
2021/07/24 11:12:08;;;;;;;7.82;5.55;;;27.60;96.80;;;;;;5037242;28;20419;-87
2021/07/24 11:14:34;;;;;;;10.48;5.22;;;27.40;96.00;;;;;;5037641;28;20032;-88
2021/07/24 11:17:11;;;;;;;8.75;5.22;;;27.00;96.80;;;;;;5037432;28;20012;-87
2021/07/24 11:19:53;;;;;;;9.05;5.68;;;26.70;97.40;;;;;;5037916;28;20385;-90
2021/07/24 11:22:20;;;;;;;10.82;5.60;;;26.20;97.10;;;;;;5037770;28;20028;-87
2021/07/24 11:24:52;;;;;;;9.10;5.53;;;26.10;98.20;;;;;;5037515;28;20079;-87
2021/07/24 11:27:31;;;;;;;11.88;5.28;;;26.10;98.50;;;;;;5055487;28;20499;-86
2021/07/24 11:30:02;;;;;;;10.60;5.53;;;26.00;98.60;;;;;;5055080;28;20017;-87
2021/07/24 11:32:29;;;;;;;8.38;6.10;;;25.80;98.40;;;;;;5037454;28;20021;-88
2021/07/24 11:35:14;;;;;;;11.95;4.85;;;25.80;99.00;;;;;;5037281;28;20032;-88
2021/07/24 11:37:51;;;;;;;9.95;5.10;;;25.80;98.80;;;;;;5036496;28;20040;-87
2021/07/24 11:40:31;;;;;;;9.25;5.35;;;26.10;99.30;;;;;;5037374;28;20048;-89
2021/07/24 11:43:02;;;;;;;12.23;5.13;;;26.30;98.40;;;;;;5037619;28;20111;-87
2021/07/24 11:45:29;;;;;;;11.27;4.90;;;26.50;98.20;;;;;;5054974;28;20025;-86
2021/07/24 11:48:08;;;;;;;8.65;4.75;;;27.50;97.70;;;;;;5037298;28;20400;-87
2021/07/24 11:50:34;;;;;;;10.50;5.05;;;28.10;96.30;;;;;;5054938;28;20024;-86
2021/07/24 11:53:02;;;;;;;9.90;5.60;;;28.70;96.00;;;;;;5036556;28;20388;-87
2021/07/24 11:55:35;;;;;;;8.40;5.53;;;29.40;95.30;;;;;;5054115;28;20036;-87
2021/07/24 11:58:06;;;;;;;8.65;5.30;;;29.90;94.20;;;;;;5054294;28;20495;-86
2021/07/24 12:00:38;;;;;;;12.77;5.63;;;29.60;93.90;;;;;;5036665;28;20035;-86
2021/07/24 12:03:17;;;;;;;9.60;5.50;;;29.30;93.80;;;;;;5054518;28;20025;-86
2021/07/24 12:05:44;;;;;;;11.30;5.55;;;29.50;94.40;;;;;;5036611;28;20052;-87
2021/07/24 12:08:10;;;;;;;10.85;5.18;;;28.90;94.70;;;;;;5037146;28;20029;-87
2021/07/24 12:10:41;;;;;;;16.10;5.78;;;28.50;95.20;;;;;;5036587;28;20040;-87
2021/07/24 12:13:07;;;;;;;10.27;5.38;;;28.70;95.40;;;;;;5054366;28;20433;-87
2021/07/24 12:15:52;;;;;;;10.15;5.40;;;29.50;94.70;;;;;;5036822;28;20036;-86
2021/07/24 12:18:18;;;;;;;9.77;5.78;;;29.90;94.00;;;;;;5036813;28;20059;-86
2021/07/24 12:20:44;;;;;;;7.95;5.50;;;30.00;93.80;;;;;;5036261;28;20500;-87
2021/07/24 12:23:21;;;;;;;9.57;5.25;;;30.00;93.50;;;;;;5036158;28;20051;-87
2021/07/24 12:26:08;;;;;;;12.10;5.65;;;30.60;93.00;;;;;;5057418;28;20021;-86
2021/07/24 12:28:34;;;;;;;9.93;5.25;;;30.60;92.50;;;;;;5040766;28;20024;-86
2021/07/24 12:31:16;;;;;;;10.30;5.63;;;29.60;93.00;;;;;;5056430;28;20028;-86
2021/07/24 12:33:52;;;;;;;10.00;5.80;;;28.60;94.10;;;;;;5040129;28;20034;-88
2021/07/24 12:36:20;;;;;;;9.77;5.03;;;27.90;95.10;;;;;;5057693;28;20543;-87
2021/07/24 12:38:46;;;;;;;10.93;5.50;;;27.40;94.40;;;;;;5039418;28;20138;-87
2021/07/24 12:41:12;;;;;;;11.52;5.60;;;27.10;95.70;;;;;;5040160;28;20496;-87
2021/07/24 12:43:41;;;;;;;10.25;5.82;;;26.90;96.10;;;;;;5039816;28;20123;-87
2021/07/24 12:46:17;;;;;;;10.05;5.30;;;26.60;96.50;;;;;;5040166;28;20499;-87